createdAt,value
2023-01-01T00:08:24.182Z,10.90
2023-01-01T00:20:26.654Z,13.10
2023-01-01T00:32:25.108Z,15.50
2023-01-01T00:44:25.471Z,14.30
2023-01-01T00:56:26.008Z,12.70
2023-01-01T01:08:30.668Z,11.60
2023-01-01T01:20:26.858Z,11.70
2023-01-01T01:32:27.303Z,11.90
2023-01-01T01:44:27.756Z,14.20
2023-01-01T01:56:28.190Z,17.70
2023-01-01T02:08:28.649Z,15.50
2023-01-01T02:20:29.097Z,15.50
2023-01-01T02:32:29.650Z,15.90
2023-01-01T02:44:30.056Z,17.60
2023-01-01T02:56:30.591Z,14.80
2023-01-01T03:08:30.927Z,15.40
2023-01-01T03:20:31.677Z,17.40
2023-01-01T03:32:31.829Z,21.30
2023-01-01T03:44:32.253Z,17.80
2023-01-01T03:56:32.712Z,19.40
2023-01-01T04:08:33.227Z,22.70
2023-01-01T04:20:33.640Z,19.00
2023-01-01T04:32:34.113Z,17.50
2023-01-01T04:44:34.554Z,16.60
2023-01-01T04:56:35.033Z,17.80
2023-01-01T05:08:35.459Z,19.70
2023-01-01T05:20:35.881Z,20.50
2023-01-01T05:32:36.325Z,18.20
2023-01-01T05:44:36.798Z,19.00
2023-01-01T05:56:37.227Z,21.00
2023-01-01T06:08:37.706Z,25.50
2023-01-01T06:20:38.125Z,23.10
2023-01-01T06:32:38.663Z,25.20
2023-01-01T06:44:39.055Z,23.40
2023-01-01T06:56:39.490Z,24.10
2023-01-01T07:08:39.984Z,25.80
2023-01-01T07:20:40.434Z,26.00
2023-01-01T07:32:40.866Z,39.10
2023-01-01T07:44:41.284Z,39.80
2023-01-01T07:56:41.768Z,36.40
2023-01-01T08:08:42.235Z,42.50
2023-01-01T08:20:42.693Z,37.70
2023-01-01T08:32:43.138Z,32.10
2023-01-01T08:44:43.571Z,34.70
2023-01-01T08:56:44.041Z,29.60
2023-01-01T09:08:44.492Z,26.10
2023-01-01T09:20:44.950Z,22.30
2023-01-01T09:32:45.361Z,20.60
2023-01-01T09:44:45.857Z,19.70
2023-01-01T09:56:46.269Z,17.00
2023-01-01T10:08:46.736Z,12.80
2023-01-01T10:20:47.198Z,11.30
2023-01-01T10:32:47.665Z,5.90
2023-01-01T10:44:48.121Z,5.90
2023-01-01T10:56:48.559Z,6.90
2023-01-01T11:08:49.047Z,7.60
2023-01-01T11:20:49.524Z,12.40
2023-01-01T11:32:55.207Z,11.60
2023-01-01T11:44:50.397Z,10.80
2023-01-01T11:56:50.886Z,11.60
2023-01-01T12:08:51.360Z,11.90
2023-01-01T12:20:51.748Z,13.20
2023-01-01T12:32:52.233Z,13.80
2023-01-01T12:44:52.700Z,16.30
2023-01-01T12:56:53.153Z,14.00
2023-01-01T13:08:53.610Z,16.60
2023-01-01T13:20:54.053Z,24.50
2023-01-01T13:32:54.505Z,19.60
2023-01-01T13:44:54.959Z,19.00
2023-01-01T13:56:55.411Z,19.50
2023-01-01T14:08:55.877Z,17.00
2023-01-01T14:20:56.311Z,15.20
2023-01-01T14:32:56.767Z,23.90
2023-01-01T14:44:57.226Z,18.70
2023-01-01T14:56:57.648Z,20.20
2023-01-01T15:08:58.142Z,19.50
2023-01-01T15:20:58.573Z,17.20
2023-01-01T15:32:59.016Z,18.00
2023-01-01T15:44:59.482Z,17.40
2023-01-01T15:56:59.947Z,20.30
2023-01-01T16:09:00.417Z,23.80
2023-01-01T16:21:00.859Z,21.80
2023-01-01T16:33:01.303Z,25.70
2023-01-01T16:45:01.731Z,27.10
2023-01-01T16:57:02.250Z,24.80
2023-01-01T17:09:02.622Z,32.90
2023-01-01T17:21:03.135Z,32.30
2023-01-01T17:33:03.648Z,29.30
2023-01-01T17:45:04.049Z,25.80
2023-01-01T17:57:04.459Z,35.10
2023-01-01T18:09:04.899Z,35.60
2023-01-01T18:21:05.371Z,43.40
2023-01-01T18:33:05.824Z,40.20
2023-01-01T18:45:06.254Z,56.00
2023-01-01T18:57:06.699Z,53.90
2023-01-01T19:09:07.178Z,54.80
2023-01-01T19:21:07.664Z,72.30
2023-01-01T19:33:08.087Z,50.10
2023-01-01T19:45:08.590Z,62.70
2023-01-01T19:57:09.001Z,76.80
2023-01-01T20:09:09.440Z,72.90
2023-01-01T20:21:09.905Z,81.00
2023-01-01T20:33:10.423Z,89.80
2023-01-01T20:45:10.819Z,84.50
2023-01-01T20:57:11.287Z,85.90
2023-01-01T21:09:11.695Z,153.00
2023-01-01T21:21:12.141Z,96.70
2023-01-01T21:33:12.578Z,81.10
2023-01-01T21:45:13.064Z,90.30
2023-01-01T21:57:13.500Z,63.80
2023-01-01T22:09:13.942Z,74.90
2023-01-01T22:21:14.396Z,71.80
2023-01-01T22:33:14.868Z,72.50
2023-01-01T22:45:15.279Z,48.20
2023-01-01T22:57:15.739Z,61.00
2023-01-01T23:09:16.263Z,66.10
2023-01-01T23:21:21.385Z,66.70
2023-01-01T23:33:17.130Z,87.40
2023-01-01T23:45:17.584Z,75.00
2023-01-01T23:57:18.028Z,61.90
